createdAt,value
2018-06-12T00:00:56.210Z,11.13
2018-06-12T00:03:26.251Z,12.10
2018-06-12T00:05:55.351Z,11.67
2018-06-12T00:08:24.459Z,11.77
2018-06-12T00:10:54.337Z,10.93
2018-06-12T00:13:23.431Z,11.23
2018-06-12T00:15:52.535Z,11.63
2018-06-12T00:18:21.622Z,11.63
2018-06-12T00:20:50.723Z,13.73
2018-06-12T00:23:19.814Z,10.93
2018-06-12T00:25:48.954Z,11.73
2018-06-12T00:28:18.858Z,11.00
2018-06-12T00:30:47.954Z,10.73
2018-06-12T00:33:17.095Z,10.97
2018-06-12T00:35:46.186Z,9.60
2018-06-12T00:38:15.422Z,8.93
2018-06-12T00:40:44.542Z,11.10
2018-06-12T00:43:13.669Z,9.23
2018-06-12T00:45:42.796Z,10.90
2018-06-12T00:48:11.901Z,9.70
2018-06-12T00:50:40.987Z,10.13
2018-06-12T00:53:10.089Z,9.20
2018-06-12T00:55:39.972Z,11.50
2018-06-12T00:58:09.083Z,9.57
2018-06-12T01:00:38.161Z,9.57
2018-06-12T01:03:07.351Z,8.97
2018-06-12T01:05:36.438Z,10.23
2018-06-12T01:08:09.122Z,10.00
2018-06-12T01:10:38.210Z,9.50
2018-06-12T01:13:07.316Z,10.10
2018-06-12T01:15:36.810Z,10.33
2018-06-12T01:18:06.845Z,9.80
2018-06-12T01:20:36.702Z,11.17
2018-06-12T01:23:06.475Z,9.93
2018-06-12T01:25:35.603Z,10.13
2018-06-12T01:28:04.762Z,12.10
2018-06-12T01:30:33.858Z,11.70
2018-06-12T01:33:03.007Z,12.07
2018-06-12T01:35:32.155Z,12.40
2018-06-12T01:38:01.434Z,13.40
2018-06-12T01:40:30.713Z,12.87
2018-06-12T01:43:00.158Z,13.33
2018-06-12T01:45:29.275Z,14.30
2018-06-12T01:47:58.387Z,11.70
2018-06-12T01:50:27.514Z,12.97
2018-06-12T01:52:56.613Z,11.37
2018-06-12T01:55:25.726Z,12.20
2018-06-12T01:57:54.838Z,11.53
2018-06-12T02:00:23.732Z,12.67
2018-06-12T02:02:52.868Z,11.10
2018-06-12T02:05:22.070Z,11.27
2018-06-12T02:07:51.387Z,13.20
2018-06-12T02:10:22.982Z,11.57
2018-06-12T02:12:51.860Z,12.20
2018-06-12T02:15:23.727Z,14.40
2018-06-12T02:17:52.621Z,12.40
2018-06-12T02:20:21.730Z,13.37
2018-06-12T02:22:50.865Z,14.10
2018-06-12T02:25:19.972Z,13.70
2018-06-12T02:27:49.074Z,14.80
2018-06-12T02:30:18.207Z,14.90
2018-06-12T02:32:47.983Z,15.33
2018-06-12T02:35:17.151Z,15.83
2018-06-12T02:37:46.288Z,16.10
2018-06-12T02:40:16.927Z,14.10
2018-06-12T02:42:46.826Z,12.83
2018-06-12T02:45:15.936Z,13.10
2018-06-12T02:47:48.334Z,12.50
2018-06-12T02:50:17.509Z,12.60
2018-06-12T02:52:46.578Z,13.50
2018-06-12T02:55:15.702Z,11.07
2018-06-12T02:57:44.780Z,13.07
2018-06-12T03:00:13.877Z,13.20
2018-06-12T03:02:42.993Z,12.90
2018-06-12T03:05:12.451Z,13.27
2018-06-12T03:07:41.622Z,13.17
2018-06-12T03:10:10.746Z,12.70
2018-06-12T03:12:39.853Z,13.03
2018-06-12T03:15:09.147Z,11.60
2018-06-12T03:17:38.287Z,12.40
2018-06-12T03:20:07.379Z,11.70
2018-06-12T03:22:36.737Z,11.57
2018-06-12T03:25:05.890Z,11.63
2018-06-12T03:27:34.962Z,13.23
2018-06-12T03:30:03.588Z,15.30
2018-06-12T03:32:32.886Z,12.53
2018-06-12T03:35:01.980Z,13.10
2018-06-12T03:37:31.092Z,12.60
2018-06-12T03:40:00.209Z,12.73
2018-06-12T03:42:29.311Z,12.00
2018-06-12T03:44:58.403Z,11.67
2018-06-12T03:47:27.557Z,11.60
2018-06-12T03:49:56.646Z,11.10
2018-06-12T03:52:25.758Z,11.93
2018-06-12T03:54:54.894Z,11.63
2018-06-12T03:57:23.983Z,14.73
2018-06-12T03:59:53.088Z,11.60
2018-06-12T04:02:22.424Z,11.83
2018-06-12T04:04:51.607Z,11.63
2018-06-12T04:07:20.763Z,12.90
2018-06-12T04:09:50.286Z,13.30
2018-06-12T04:12:20.107Z,14.00
2018-06-12T04:14:49.280Z,12.70
2018-06-12T04:17:18.381Z,11.90
2018-06-12T04:19:47.566Z,13.60
2018-06-12T04:22:17.042Z,14.87
2018-06-12T04:24:46.179Z,12.90
2018-06-12T04:27:15.378Z,12.93
2018-06-12T04:29:44.518Z,13.37
2018-06-12T04:32:13.647Z,12.63
2018-06-12T04:34:43.510Z,12.20
2018-06-12T04:37:12.602Z,14.10
2018-06-12T04:39:41.674Z,13.17
2018-06-12T04:42:10.783Z,12.97
2018-06-12T04:44:39.867Z,12.73
2018-06-12T04:47:08.969Z,13.30
2018-06-12T04:49:38.070Z,13.47
2018-06-12T04:52:07.234Z,12.97
2018-06-12T04:54:51.547Z,11.93
2018-06-12T04:57:20.851Z,9.60
2018-06-12T04:59:50.122Z,11.33
2018-06-12T05:02:19.738Z,12.20
2018-06-12T05:04:48.850Z,9.40
2018-06-12T05:07:17.994Z,10.40
2018-06-12T05:09:47.080Z,11.10
2018-06-12T05:12:18.616Z,12.30
2018-06-12T05:14:47.699Z,11.33
2018-06-12T05:17:17.104Z,11.63
2018-06-12T05:19:47.307Z,12.70
2018-06-12T05:22:17.147Z,13.50
2018-06-12T05:24:46.288Z,13.17
2018-06-12T05:27:15.589Z,11.90
2018-06-12T05:29:49.273Z,11.87
2018-06-12T05:32:18.638Z,11.90
2018-06-12T05:34:47.787Z,13.47
2018-06-12T05:37:16.934Z,12.10
2018-06-12T05:39:48.507Z,13.50
2018-06-12T05:42:17.605Z,12.17
2018-06-12T05:44:46.683Z,15.23
2018-06-12T05:47:15.846Z,13.13
2018-06-12T05:49:44.978Z,16.07
2018-06-12T05:52:14.070Z,16.00
2018-06-12T05:54:43.208Z,16.23
2018-06-12T05:57:12.725Z,15.00
2018-06-12T05:59:42.727Z,19.70
2018-06-12T06:02:11.870Z,17.80
2018-06-12T06:04:41.815Z,19.90
2018-06-12T06:07:11.029Z,19.73
2018-06-12T06:09:41.010Z,18.23
2018-06-12T06:12:10.837Z,18.13
2018-06-12T06:14:40.470Z,21.60
2018-06-12T06:17:09.618Z,19.30
2018-06-12T06:19:38.727Z,23.23
2018-06-12T06:22:07.874Z,22.33
2018-06-12T06:24:36.992Z,19.37
2018-06-12T06:27:06.223Z,20.83
2018-06-12T06:29:35.366Z,18.67
2018-06-12T06:32:04.536Z,20.97
2018-06-12T06:34:33.650Z,19.63
2018-06-12T06:37:02.579Z,18.57
2018-06-12T06:39:32.624Z,17.07
2018-06-12T06:42:01.773Z,18.27
2018-06-12T06:44:30.882Z,20.10
2018-06-12T06:46:59.971Z,17.43
2018-06-12T06:49:29.068Z,19.20
2018-06-12T06:51:58.210Z,19.40
2018-06-12T06:54:27.299Z,19.10
2018-06-12T06:56:56.634Z,18.03
2018-06-12T06:59:25.801Z,19.27
2018-06-12T07:01:54.918Z,19.07
2018-06-12T07:04:24.012Z,17.43
2018-06-12T07:06:53.181Z,19.07
2018-06-12T07:09:22.687Z,18.20
2018-06-12T07:11:55.382Z,17.17
2018-06-12T07:14:24.507Z,18.80
2018-06-12T07:16:53.614Z,16.40
2018-06-12T07:19:23.143Z,16.80
2018-06-12T07:21:52.302Z,17.37
2018-06-12T07:24:21.442Z,16.30
2018-06-12T07:26:50.561Z,16.07
2018-06-12T07:29:19.671Z,17.93
2018-06-12T07:31:48.761Z,16.97
2018-06-12T07:34:18.183Z,16.37
2018-06-12T07:36:49.372Z,18.20
2018-06-12T07:39:18.510Z,16.00
2018-06-12T07:41:47.684Z,14.87
2018-06-12T07:44:17.356Z,15.57
2018-06-12T07:46:46.551Z,15.40
2018-06-12T07:49:15.648Z,16.50
2018-06-12T07:51:44.919Z,15.87
2018-06-12T07:54:14.865Z,16.83
2018-06-12T07:56:43.973Z,15.77
2018-06-12T07:59:13.066Z,15.30
2018-06-12T08:01:42.159Z,13.17
2018-06-12T08:04:11.270Z,12.90
2018-06-12T08:06:40.406Z,15.00
2018-06-12T08:09:09.542Z,14.10
2018-06-12T08:11:38.795Z,14.73
2018-06-12T08:14:08.526Z,15.23
2018-06-12T08:16:37.699Z,13.70
2018-06-12T08:19:06.861Z,15.00
2018-06-12T08:21:36.076Z,14.20
2018-06-12T08:24:05.570Z,13.13
2018-06-12T08:26:34.839Z,13.13
2018-06-12T08:29:03.963Z,14.60
2018-06-12T08:31:33.063Z,12.83
2018-06-12T08:34:03.959Z,13.50
2018-06-12T08:36:33.634Z,11.87
2018-06-12T08:39:02.843Z,13.00
2018-06-12T08:41:31.974Z,13.50
2018-06-12T08:44:01.045Z,15.67
2018-06-12T08:46:30.843Z,15.00
2018-06-12T08:49:00.039Z,15.07
2018-06-12T08:51:29.491Z,15.73
2018-06-12T08:53:59.697Z,14.80
2018-06-12T08:56:28.830Z,17.17
2018-06-12T08:58:58.234Z,17.93
2018-06-12T09:01:27.404Z,16.40
2018-06-12T09:03:56.675Z,19.20
2018-06-12T09:06:26.192Z,18.33
2018-06-12T09:08:55.727Z,18.70
2018-06-12T09:11:24.965Z,17.10
2018-06-12T09:13:54.446Z,18.10
2018-06-12T09:16:23.646Z,15.90
2018-06-12T09:18:52.747Z,16.30
2018-06-12T09:21:21.928Z,18.50
2018-06-12T09:23:51.135Z,15.77
2018-06-12T09:26:20.223Z,18.23
2018-06-12T09:28:49.328Z,17.87
2018-06-12T09:31:18.454Z,17.00
2018-06-12T09:33:47.526Z,16.30
2018-06-12T09:36:21.856Z,17.23
2018-06-12T09:38:50.943Z,15.43
2018-06-12T09:41:20.032Z,13.63
2018-06-12T09:43:49.264Z,13.80
2018-06-12T09:46:18.343Z,14.80
2018-06-12T09:48:47.486Z,14.67
2018-06-12T09:51:17.118Z,13.77
2018-06-12T09:53:46.235Z,13.57
2018-06-12T09:56:15.328Z,12.10
2018-06-12T09:58:44.433Z,10.10
2018-06-12T10:01:18.860Z,10.13
2018-06-12T10:03:49.954Z,10.13
2018-06-12T10:06:19.073Z,10.83
2018-06-12T10:08:48.170Z,10.33
2018-06-12T10:11:17.286Z,9.40
2018-06-12T10:13:46.383Z,10.60
2018-06-12T10:16:15.483Z,10.40
2018-06-12T10:18:44.633Z,10.13
2018-06-12T10:21:13.719Z,9.80
2018-06-12T10:23:42.979Z,8.77
2018-06-12T10:26:12.103Z,8.40
2018-06-12T10:28:41.222Z,7.30
2018-06-12T10:31:10.299Z,8.43
2018-06-12T10:33:40.034Z,8.13
2018-06-12T10:36:09.139Z,7.77
2018-06-12T10:38:38.238Z,8.63
2018-06-12T10:41:07.369Z,8.03
2018-06-12T10:43:36.506Z,9.20
2018-06-12T10:46:05.606Z,7.93
2018-06-12T10:48:34.723Z,7.83
2018-06-12T10:51:03.854Z,7.53
2018-06-12T10:53:32.929Z,8.50
2018-06-12T10:56:02.063Z,7.07
2018-06-12T10:58:33.511Z,5.97
2018-06-12T11:01:02.647Z,7.40
2018-06-12T11:03:31.761Z,5.60
2018-06-12T11:06:00.789Z,6.10
2018-06-12T11:08:29.926Z,5.10
2018-06-12T11:10:59.009Z,5.30
2018-06-12T11:13:28.090Z,4.10
2018-06-12T11:15:57.270Z,3.30
2018-06-12T11:18:26.364Z,5.07
2018-06-12T11:20:55.463Z,3.00
2018-06-12T11:23:24.566Z,3.67
2018-06-12T11:25:53.636Z,2.20
2018-06-12T11:28:22.763Z,2.70
2018-06-12T11:30:52.571Z,5.13
2018-06-12T11:33:21.675Z,3.90
2018-06-12T11:35:50.967Z,4.23
2018-06-12T11:38:20.162Z,4.30
2018-06-12T11:40:49.283Z,4.90
2018-06-12T11:43:18.402Z,5.40
2018-06-12T11:45:47.315Z,5.30
2018-06-12T11:48:17.031Z,5.53
2018-06-12T11:50:46.106Z,4.63
2018-06-12T11:53:15.190Z,5.23
2018-06-12T11:55:44.834Z,4.90
2018-06-12T11:58:13.914Z,4.70
2018-06-12T12:00:43.014Z,3.93
2018-06-12T12:03:12.166Z,5.30
2018-06-12T12:05:42.368Z,6.97
2018-06-12T12:08:11.475Z,5.27
2018-06-12T12:10:40.608Z,4.93
2018-06-12T12:13:09.807Z,4.30
2018-06-12T12:15:38.890Z,4.60
2018-06-12T12:18:08.047Z,5.10
2018-06-12T12:20:37.147Z,4.10
2018-06-12T12:23:06.610Z,4.20
2018-06-12T12:25:35.767Z,4.30
2018-06-12T12:28:04.992Z,4.27
2018-06-12T12:30:35.158Z,4.80
2018-06-12T12:33:04.379Z,4.70
2018-06-12T12:35:33.520Z,4.70
2018-06-12T12:38:03.178Z,4.80
2018-06-12T12:40:33.093Z,3.30
2018-06-12T12:43:02.787Z,3.33
2018-06-12T12:45:31.951Z,7.30
2018-06-12T12:48:01.099Z,5.70
2018-06-12T12:50:30.190Z,7.10
2018-06-12T12:52:59.325Z,6.63
2018-06-12T12:55:28.435Z,9.43
2018-06-12T12:57:57.088Z,8.10
2018-06-12T13:00:26.216Z,8.80
2018-06-12T13:02:55.207Z,7.57
2018-06-12T13:05:24.864Z,6.50
2018-06-12T13:07:54.035Z,6.77
2018-06-12T13:10:23.463Z,8.70
2018-06-12T13:12:52.599Z,10.27
2018-06-12T13:15:21.712Z,13.30
2018-06-12T13:17:51.176Z,14.87
2018-06-12T13:20:21.031Z,19.10
2018-06-12T13:22:50.130Z,19.60
2018-06-12T13:25:19.250Z,19.93
2018-06-12T13:27:48.384Z,20.77
2018-06-12T13:30:17.507Z,23.83
2018-06-12T13:32:46.603Z,23.43
2018-06-12T13:35:15.758Z,23.67
2018-06-12T13:37:44.919Z,26.83
2018-06-12T13:40:14.058Z,26.33
2018-06-12T13:42:43.216Z,25.93
2018-06-12T13:45:12.362Z,27.30
2018-06-12T13:47:41.491Z,28.60
2018-06-12T13:50:10.631Z,28.47
2018-06-12T13:52:40.075Z,27.87
2018-06-12T13:55:09.187Z,27.63
2018-06-12T13:57:37.963Z,25.27
2018-06-12T14:00:06.827Z,24.43
2018-06-12T14:02:36.085Z,25.07
2018-06-12T14:05:05.278Z,25.93
2018-06-12T14:07:34.387Z,25.07
2018-06-12T14:10:03.674Z,26.43
2018-06-12T14:12:32.846Z,25.37
2018-06-12T14:15:01.948Z,28.57
2018-06-12T14:17:31.114Z,23.57
2018-06-12T14:20:00.253Z,22.23
2018-06-12T14:22:31.758Z,25.80
2018-06-12T14:25:01.106Z,24.10
2018-06-12T14:27:30.231Z,23.73
2018-06-12T14:29:59.720Z,24.13
2018-06-12T14:32:28.854Z,22.87
2018-06-12T14:34:57.970Z,24.20
2018-06-12T14:37:27.096Z,24.00
2018-06-12T14:39:56.905Z,23.70
2018-06-12T14:42:26.250Z,19.90
2018-06-12T14:44:57.218Z,17.30
2018-06-12T14:47:26.678Z,18.97
2018-06-12T14:49:56.002Z,16.90
2018-06-12T14:52:25.207Z,16.80
2018-06-12T14:54:54.690Z,15.60
2018-06-12T14:58:26.404Z,15.60
2018-06-12T15:00:56.123Z,15.30
2018-06-12T15:03:25.242Z,16.70
2018-06-12T15:05:54.338Z,17.80
2018-06-12T15:08:23.459Z,18.10
2018-06-12T15:10:53.299Z,15.27
2018-06-12T15:13:22.407Z,14.33
2018-06-12T15:15:51.490Z,14.10
2018-06-12T15:18:20.615Z,15.10
2018-06-12T15:20:49.730Z,19.00
2018-06-12T15:23:18.864Z,17.87
2018-06-12T15:25:47.968Z,18.70
2018-06-12T15:28:17.091Z,18.33
2018-06-12T15:30:46.187Z,16.97
2018-06-12T15:33:15.283Z,21.00
2018-06-12T15:35:45.032Z,17.27
2018-06-12T15:38:14.151Z,17.33
2018-06-12T15:40:43.743Z,18.80
2018-06-12T15:43:12.551Z,17.47
2018-06-12T15:45:41.715Z,18.80
2018-06-12T15:48:11.946Z,17.47
2018-06-12T15:50:41.363Z,14.87
2018-06-12T15:53:10.458Z,13.43
2018-06-12T15:55:39.606Z,14.47
2018-06-12T15:58:09.381Z,12.53
2018-06-12T16:00:38.529Z,12.67
2018-06-12T16:03:07.691Z,14.57
2018-06-12T16:05:37.023Z,14.83
2018-06-12T16:08:06.805Z,15.23
2018-06-12T16:10:36.173Z,13.53
2018-06-12T16:13:06.430Z,15.43
2018-06-12T16:15:37.646Z,14.97
2018-06-12T16:18:07.079Z,13.60
2018-06-12T16:20:36.335Z,12.87
2018-06-12T16:23:05.514Z,13.67
2018-06-12T16:25:34.650Z,12.00
2018-06-12T16:28:03.765Z,11.77
2018-06-12T16:30:32.914Z,13.07
2018-06-12T16:33:02.163Z,14.83
2018-06-12T16:35:31.258Z,14.80
2018-06-12T16:38:00.372Z,12.33
2018-06-12T16:40:29.491Z,12.27
2018-06-12T16:42:58.603Z,12.97
2018-06-12T16:45:27.699Z,12.27
2018-06-12T16:47:56.835Z,11.83
2018-06-12T16:50:26.011Z,10.57
2018-06-12T16:52:55.113Z,11.47
2018-06-12T16:55:24.256Z,11.60
2018-06-12T16:57:53.377Z,11.37
2018-06-12T17:00:22.469Z,11.30
2018-06-12T17:02:51.610Z,10.40
2018-06-12T17:05:21.357Z,10.33
2018-06-12T17:07:50.569Z,10.17
2018-06-12T17:10:20.406Z,10.07
2018-06-12T17:12:49.585Z,11.20
2018-06-12T17:15:18.722Z,10.40
2018-06-12T17:17:47.918Z,11.27
2018-06-12T17:20:17.150Z,12.07
2018-06-12T17:22:46.343Z,10.80
2018-06-12T17:25:16.015Z,12.77
2018-06-12T17:27:45.150Z,13.10
2018-06-12T17:30:14.368Z,13.60
2018-06-12T17:32:43.541Z,13.47
2018-06-12T17:35:12.678Z,13.80
2018-06-12T17:37:41.814Z,13.63
2018-06-12T17:40:11.250Z,12.97
2018-06-12T17:42:40.440Z,12.83
2018-06-12T17:45:09.666Z,14.23
2018-06-12T17:47:38.790Z,12.13
2018-06-12T17:50:08.391Z,15.53
2018-06-12T17:52:37.587Z,15.90
2018-06-12T17:55:06.797Z,13.30
2018-06-12T17:57:35.822Z,15.07
2018-06-12T18:00:04.598Z,15.47
2018-06-12T18:02:33.832Z,15.13
2018-06-12T18:05:02.944Z,13.37
2018-06-12T18:07:32.198Z,16.60
2018-06-12T18:10:01.371Z,14.53
2018-06-12T18:12:30.467Z,13.83
2018-06-12T18:14:59.166Z,14.37
2018-06-12T18:17:28.575Z,13.13
2018-06-12T18:20:01.666Z,15.83
2018-06-12T18:22:31.948Z,15.83
2018-06-12T18:25:01.168Z,16.70
2018-06-12T18:27:30.858Z,11.80
2018-06-12T18:29:59.959Z,7.00
2018-06-12T18:32:29.034Z,5.87
2018-06-12T18:34:58.193Z,4.70
2018-06-12T18:37:27.417Z,5.00
2018-06-12T18:39:56.538Z,4.37
2018-06-12T18:42:25.686Z,5.23
2018-06-12T18:44:55.159Z,3.20
2018-06-12T18:47:24.471Z,2.30
2018-06-12T18:49:53.590Z,2.03
2018-06-12T18:52:22.728Z,1.90
2018-06-12T18:54:51.835Z,3.13
2018-06-12T18:57:21.021Z,3.10
2018-06-12T18:59:50.131Z,3.00
2018-06-12T19:02:19.390Z,3.60
2018-06-12T19:04:48.847Z,3.00
2018-06-12T19:07:18.004Z,2.40
2018-06-12T19:09:47.406Z,2.70
2018-06-12T19:12:16.620Z,2.60
2018-06-12T19:14:45.870Z,2.90
2018-06-12T19:17:15.100Z,2.50
2018-06-12T19:19:44.251Z,2.47
2018-06-12T19:22:13.405Z,3.47
2018-06-12T19:24:42.631Z,3.00
2018-06-12T19:27:12.173Z,3.00
2018-06-12T19:29:41.383Z,3.30
2018-06-12T19:32:10.562Z,3.80
2018-06-12T19:34:40.179Z,4.03
2018-06-12T19:37:10.058Z,5.77
2018-06-12T19:39:39.205Z,5.27
2018-06-12T19:42:08.343Z,4.93
2018-06-12T19:44:37.478Z,6.63
2018-06-12T19:47:06.567Z,6.33
2018-06-12T19:49:35.685Z,6.73
2018-06-12T19:52:04.863Z,7.47
2018-06-12T19:54:34.026Z,10.30
2018-06-12T19:57:03.347Z,10.67
2018-06-12T19:59:32.605Z,11.20
2018-06-12T20:02:01.985Z,12.60
2018-06-12T20:04:31.316Z,13.63
2018-06-12T20:07:00.490Z,27.40
2018-06-12T20:09:29.649Z,28.10
2018-06-12T20:11:59.587Z,33.30
2018-06-12T20:14:28.711Z,33.73
2018-06-12T20:16:57.847Z,37.03
2018-06-12T20:19:26.932Z,34.63
2018-06-12T20:21:56.036Z,36.20
2018-06-12T20:24:25.312Z,36.03
2018-06-12T20:26:54.431Z,34.10
2018-06-12T20:29:23.510Z,36.00
2018-06-12T20:31:52.629Z,35.23
2018-06-12T20:34:21.716Z,32.50
2018-06-12T20:36:50.883Z,33.03
2018-06-12T20:39:20.335Z,35.40
2018-06-12T20:41:49.505Z,34.83
2018-06-12T20:44:18.645Z,34.87
2018-06-12T20:46:47.848Z,33.07
2018-06-12T20:49:16.866Z,35.40
2018-06-12T20:51:46.031Z,34.50
2018-06-12T20:54:15.102Z,34.20
2018-06-12T20:56:44.199Z,32.30
2018-06-12T20:59:13.326Z,33.97
2018-06-12T21:01:42.603Z,32.23
2018-06-12T21:04:11.811Z,29.10
2018-06-12T21:06:42.272Z,32.27
2018-06-12T21:09:11.554Z,32.40
2018-06-12T21:11:40.714Z,31.03
2018-06-12T21:14:09.882Z,31.33
2018-06-12T21:16:39.079Z,31.57
2018-06-12T21:19:08.399Z,30.67
2018-06-12T21:21:37.558Z,32.70
2018-06-12T21:24:06.549Z,33.07
2018-06-12T21:26:35.685Z,27.67
2018-06-12T21:29:05.407Z,29.00
2018-06-12T21:31:34.523Z,27.80
2018-06-12T21:34:03.658Z,25.80
2018-06-12T21:36:32.814Z,20.90
2018-06-12T21:39:02.015Z,21.80
2018-06-12T21:41:31.131Z,22.33
2018-06-12T21:44:00.283Z,19.83
2018-06-12T21:46:29.384Z,20.67
2018-06-12T21:48:58.491Z,18.03
2018-06-12T21:51:27.626Z,21.97
2018-06-12T21:53:57.152Z,20.13
2018-06-12T21:56:26.434Z,15.70
2018-06-12T21:58:55.627Z,17.70
2018-06-12T22:01:24.747Z,13.90
2018-06-12T22:03:53.971Z,16.63
2018-06-12T22:06:23.582Z,14.80
2018-06-12T22:08:53.247Z,15.00
2018-06-12T22:11:23.038Z,15.87
2018-06-12T22:13:52.319Z,18.10
2018-06-12T22:16:22.782Z,21.60
2018-06-12T22:18:55.982Z,17.90
2018-06-12T22:21:25.099Z,20.07
2018-06-12T22:23:54.216Z,19.17
2018-06-12T22:26:23.326Z,23.50
2018-06-12T22:28:53.955Z,22.53
2018-06-12T22:31:23.082Z,25.10
2018-06-12T22:33:52.179Z,23.50
2018-06-12T22:36:21.326Z,24.60
2018-06-12T22:38:50.431Z,23.00
2018-06-12T22:41:19.538Z,23.23
2018-06-12T22:43:48.632Z,19.07
2018-06-12T22:46:17.799Z,21.10
2018-06-12T22:48:46.966Z,16.97
2018-06-12T22:51:16.143Z,16.40
2018-06-12T22:53:45.494Z,13.60
2018-06-12T22:56:14.871Z,15.90
2018-06-12T22:58:43.959Z,18.70
2018-06-12T23:01:13.977Z,18.07
2018-06-12T23:03:43.165Z,18.43
2018-06-12T23:06:12.316Z,16.23
2018-06-12T23:08:41.447Z,14.70
2018-06-12T23:11:10.590Z,15.23
2018-06-12T23:13:40.330Z,15.13
2018-06-12T23:16:09.466Z,17.60
2018-06-12T23:18:38.569Z,17.67
2018-06-12T23:21:26.402Z,16.17
2018-06-12T23:23:55.503Z,18.10
2018-06-12T23:26:24.762Z,19.17
2018-06-12T23:28:53.955Z,19.20
2018-06-12T23:31:23.550Z,18.63
2018-06-12T23:33:52.875Z,20.20
2018-06-12T23:36:22.008Z,19.70
2018-06-12T23:38:51.085Z,20.57
2018-06-12T23:41:19.971Z,19.60
2018-06-12T23:43:49.126Z,17.10
2018-06-12T23:46:18.282Z,19.23
2018-06-12T23:48:47.374Z,19.67
2018-06-12T23:51:16.731Z,17.17
2018-06-12T23:53:45.820Z,18.87
2018-06-12T23:56:14.938Z,17.90
2018-06-12T23:58:44.075Z,18.10
